sensor_id;sensor_type;location;lat;lon;timestamp;P1;durP1;ratioP1;P2;durP2;ratioP2
11524;SDS011;5819;49.648;8.330;2023-05-10T00:00:15;1.13;;;0.90;;
11524;SDS011;5819;49.648;8.330;2023-05-10T00:02:43;2.33;;;0.85;;
11524;SDS011;5819;49.648;8.330;2023-05-10T00:05:12;2.47;;;1.20;;
11524;SDS011;5819;49.648;8.330;2023-05-10T00:07:39;3.00;;;1.05;;
11524;SDS011;5819;49.648;8.330;2023-05-10T00:10:11;1.58;;;1.10;;
11524;SDS011;5819;49.648;8.330;2023-05-10T00:12:39;1.20;;;1.10;;
11524;SDS011;5819;49.648;8.330;2023-05-10T00:15:08;1.45;;;1.20;;
11524;SDS011;5819;49.648;8.330;2023-05-10T00:17:37;2.15;;;1.27;;
11524;SDS011;5819;49.648;8.330;2023-05-10T00:20:06;1.48;;;1.20;;
11524;SDS011;5819;49.648;8.330;2023-05-10T00:22:34;2.63;;;1.60;;
11524;SDS011;5819;49.648;8.330;2023-05-10T00:25:02;2.42;;;1.70;;
11524;SDS011;5819;49.648;8.330;2023-05-10T00:27:30;1.67;;;1.58;;
11524;SDS011;5819;49.648;8.330;2023-05-10T00:29:58;4.53;;;1.80;;
11524;SDS011;5819;49.648;8.330;2023-05-10T00:32:26;2.15;;;1.45;;
11524;SDS011;5819;49.648;8.330;2023-05-10T00:34:56;3.35;;;1.63;;
11524;SDS011;5819;49.648;8.330;2023-05-10T00:37:24;4.82;;;1.75;;
11524;SDS011;5819;49.648;8.330;2023-05-10T00:39:51;2.92;;;1.50;;
11524;SDS011;5819;49.648;8.330;2023-05-10T00:42:20;5.60;;;1.70;;
11524;SDS011;5819;49.648;8.330;2023-05-10T00:44:50;4.78;;;1.60;;
11524;SDS011;5819;49.648;8.330;2023-05-10T00:47:18;2.08;;;1.50;;
11524;SDS011;5819;49.648;8.330;2023-05-10T00:49:47;4.35;;;1.45;;
11524;SDS011;5819;49.648;8.330;2023-05-10T00:52:17;2.28;;;1.25;;
11524;SDS011;5819;49.648;8.330;2023-05-10T00:54:46;3.28;;;1.50;;
11524;SDS011;5819;49.648;8.330;2023-05-10T00:57:15;1.50;;;1.40;;
11524;SDS011;5819;49.648;8.330;2023-05-10T00:59:43;1.48;;;1.33;;
11524;SDS011;5819;49.648;8.330;2023-05-10T01:02:12;2.00;;;1.80;;
11524;SDS011;5819;49.648;8.330;2023-05-10T01:04:41;2.00;;;1.40;;
11524;SDS011;5819;49.648;8.330;2023-05-10T01:07:10;2.05;;;1.50;;
11524;SDS011;5819;49.648;8.330;2023-05-10T01:09:40;1.45;;;1.35;;
11524;SDS011;5819;49.648;8.330;2023-05-10T01:12:08;1.77;;;1.63;;
11524;SDS011;5819;49.648;8.330;2023-05-10T01:14:37;1.70;;;1.60;;
11524;SDS011;5819;49.648;8.330;2023-05-10T01:17:07;2.75;;;1.80;;
11524;SDS011;5819;49.648;8.330;2023-05-10T01:19:37;2.58;;;2.20;;
11524;SDS011;5819;49.648;8.330;2023-05-10T01:22:15;2.40;;;2.08;;
11524;SDS011;5819;49.648;8.330;2023-05-10T01:28:23;4.10;;;2.17;;
11524;SDS011;5819;49.648;8.330;2023-05-10T01:31:15;3.13;;;2.50;;
11524;SDS011;5819;49.648;8.330;2023-05-10T01:33:52;3.92;;;2.00;;
11524;SDS011;5819;49.648;8.330;2023-05-10T01:36:26;3.13;;;2.40;;
11524;SDS011;5819;49.648;8.330;2023-05-10T01:38:58;5.90;;;2.45;;
11524;SDS011;5819;49.648;8.330;2023-05-10T01:41:33;3.25;;;2.95;;
11524;SDS011;5819;49.648;8.330;2023-05-10T01:44:09;4.18;;;2.90;;
11524;SDS011;5819;49.648;8.330;2023-05-10T01:46:45;3.28;;;2.65;;
11524;SDS011;5819;49.648;8.330;2023-05-10T01:49:23;6.13;;;2.90;;
11524;SDS011;5819;49.648;8.330;2023-05-10T01:51:53;9.98;;;2.90;;
11524;SDS011;5819;49.648;8.330;2023-05-10T01:54:26;4.38;;;3.13;;
11524;SDS011;5819;49.648;8.330;2023-05-10T01:56:59;8.38;;;3.13;;
11524;SDS011;5819;49.648;8.330;2023-05-10T01:59:29;3.38;;;3.08;;
11524;SDS011;5819;49.648;8.330;2023-05-10T02:02:02;4.38;;;2.95;;
11524;SDS011;5819;49.648;8.330;2023-05-10T02:04:33;6.28;;;2.97;;
11524;SDS011;5819;49.648;8.330;2023-05-10T02:07:05;6.47;;;3.10;;
11524;SDS011;5819;49.648;8.330;2023-05-10T02:09:34;6.28;;;3.10;;
11524;SDS011;5819;49.648;8.330;2023-05-10T02:12:05;4.22;;;3.20;;
11524;SDS011;5819;49.648;8.330;2023-05-10T02:14:35;4.05;;;2.83;;
11524;SDS011;5819;49.648;8.330;2023-05-10T02:17:05;4.35;;;2.88;;
11524;SDS011;5819;49.648;8.330;2023-05-10T02:19:38;5.28;;;2.88;;
11524;SDS011;5819;49.648;8.330;2023-05-10T02:22:08;7.07;;;3.10;;
11524;SDS011;5819;49.648;8.330;2023-05-10T02:24:37;4.75;;;3.35;;
11524;SDS011;5819;49.648;8.330;2023-05-10T02:27:07;3.40;;;2.75;;
11524;SDS011;5819;49.648;8.330;2023-05-10T02:29:37;7.72;;;3.05;;
11524;SDS011;5819;49.648;8.330;2023-05-10T02:32:06;6.47;;;3.15;;
11524;SDS011;5819;49.648;8.330;2023-05-10T02:34:35;4.35;;;2.97;;
11524;SDS011;5819;49.648;8.330;2023-05-10T02:37:06;4.95;;;2.88;;
11524;SDS011;5819;49.648;8.330;2023-05-10T02:39:35;8.10;;;3.42;;
11524;SDS011;5819;49.648;8.330;2023-05-10T02:42:04;3.22;;;2.90;;
11524;SDS011;5819;49.648;8.330;2023-05-10T02:44:34;3.90;;;2.45;;
11524;SDS011;5819;49.648;8.330;2023-05-10T02:47:04;5.03;;;2.90;;
11524;SDS011;5819;49.648;8.330;2023-05-10T02:49:32;3.25;;;2.45;;
11524;SDS011;5819;49.648;8.330;2023-05-10T02:52:03;4.60;;;3.08;;
11524;SDS011;5819;49.648;8.330;2023-05-10T02:54:45;4.78;;;3.05;;
11524;SDS011;5819;49.648;8.330;2023-05-10T02:57:17;3.97;;;3.10;;
11524;SDS011;5819;49.648;8.330;2023-05-10T02:59:52;4.97;;;2.75;;
11524;SDS011;5819;49.648;8.330;2023-05-10T03:02:20;6.65;;;3.00;;
11524;SDS011;5819;49.648;8.330;2023-05-10T03:04:48;4.82;;;3.13;;
11524;SDS011;5819;49.648;8.330;2023-05-10T03:07:18;6.28;;;3.40;;
11524;SDS011;5819;49.648;8.330;2023-05-10T03:09:47;6.57;;;3.38;;
11524;SDS011;5819;49.648;8.330;2023-05-10T03:12:18;4.07;;;3.67;;
11524;SDS011;5819;49.648;8.330;2023-05-10T03:14:56;7.68;;;4.10;;
11524;SDS011;5819;49.648;8.330;2023-05-10T03:17:29;6.60;;;3.60;;
11524;SDS011;5819;49.648;8.330;2023-05-10T03:20:02;6.60;;;3.97;;
11524;SDS011;5819;49.648;8.330;2023-05-10T03:22:34;4.38;;;3.58;;
11524;SDS011;5819;49.648;8.330;2023-05-10T03:25:06;6.82;;;3.55;;
11524;SDS011;5819;49.648;8.330;2023-05-10T03:27:37;5.20;;;3.55;;
11524;SDS011;5819;49.648;8.330;2023-05-10T03:30:10;6.20;;;3.08;;
11524;SDS011;5819;49.648;8.330;2023-05-10T03:32:40;4.03;;;3.28;;
11524;SDS011;5819;49.648;8.330;2023-05-10T03:35:08;7.20;;;3.55;;
11524;SDS011;5819;49.648;8.330;2023-05-10T03:37:39;5.22;;;3.60;;
11524;SDS011;5819;49.648;8.330;2023-05-10T03:40:08;5.22;;;3.45;;
11524;SDS011;5819;49.648;8.330;2023-05-10T03:42:39;5.90;;;3.35;;
11524;SDS011;5819;49.648;8.330;2023-05-10T03:45:08;4.35;;;3.28;;
11524;SDS011;5819;49.648;8.330;2023-05-10T03:47:36;3.00;;;2.75;;
11524;SDS011;5819;49.648;8.330;2023-05-10T03:50:05;6.15;;;2.85;;
11524;SDS011;5819;49.648;8.330;2023-05-10T03:52:33;3.53;;;2.92;;
11524;SDS011;5819;49.648;8.330;2023-05-10T03:55:03;4.20;;;2.40;;
11524;SDS011;5819;49.648;8.330;2023-05-10T03:57:32;3.17;;;2.80;;
11524;SDS011;5819;49.648;8.330;2023-05-10T04:00:00;5.47;;;3.00;;
11524;SDS011;5819;49.648;8.330;2023-05-10T04:02:39;3.05;;;2.63;;
11524;SDS011;5819;49.648;8.330;2023-05-10T04:05:11;4.60;;;2.33;;
11524;SDS011;5819;49.648;8.330;2023-05-10T04:07:40;5.22;;;2.80;;
11524;SDS011;5819;49.648;8.330;2023-05-10T04:10:10;3.70;;;2.67;;
11524;SDS011;5819;49.648;8.330;2023-05-10T04:12:38;6.40;;;2.50;;
11524;SDS011;5819;49.648;8.330;2023-05-10T04:15:07;3.38;;;2.75;;
11524;SDS011;5819;49.648;8.330;2023-05-10T04:17:35;8.88;;;3.38;;
11524;SDS011;5819;49.648;8.330;2023-05-10T04:20:04;5.22;;;3.13;;
11524;SDS011;5819;49.648;8.330;2023-05-10T04:22:33;18.00;;;11.90;;
11524;SDS011;5819;49.648;8.330;2023-05-10T04:25:01;3.70;;;3.33;;
11524;SDS011;5819;49.648;8.330;2023-05-10T04:27:30;6.00;;;3.10;;
11524;SDS011;5819;49.648;8.330;2023-05-10T04:29:58;5.90;;;3.08;;
11524;SDS011;5819;49.648;8.330;2023-05-10T04:32:26;4.35;;;3.10;;
11524;SDS011;5819;49.648;8.330;2023-05-10T04:34:54;3.30;;;2.95;;
11524;SDS011;5819;49.648;8.330;2023-05-10T04:37:22;4.35;;;2.90;;
11524;SDS011;5819;49.648;8.330;2023-05-10T04:39:50;3.30;;;3.00;;
11524;SDS011;5819;49.648;8.330;2023-05-10T04:42:18;10.02;;;3.72;;
11524;SDS011;5819;49.648;8.330;2023-05-10T04:44:47;8.05;;;3.33;;
11524;SDS011;5819;49.648;8.330;2023-05-10T04:47:15;5.22;;;3.78;;
11524;SDS011;5819;49.648;8.330;2023-05-10T04:49:43;5.55;;;4.45;;
11524;SDS011;5819;49.648;8.330;2023-05-10T04:52:11;4.20;;;3.78;;
11524;SDS011;5819;49.648;8.330;2023-05-10T04:54:39;4.47;;;4.00;;
11524;SDS011;5819;49.648;8.330;2023-05-10T04:57:06;5.15;;;3.88;;
11524;SDS011;5819;49.648;8.330;2023-05-10T04:59:35;8.65;;;5.28;;
11524;SDS011;5819;49.648;8.330;2023-05-10T05:02:04;5.72;;;4.57;;
11524;SDS011;5819;49.648;8.330;2023-05-10T05:04:32;6.10;;;4.45;;
11524;SDS011;5819;49.648;8.330;2023-05-10T05:07:00;7.82;;;4.88;;
11524;SDS011;5819;49.648;8.330;2023-05-10T05:09:29;5.63;;;4.93;;
11524;SDS011;5819;49.648;8.330;2023-05-10T05:11:58;5.72;;;4.20;;
11524;SDS011;5819;49.648;8.330;2023-05-10T05:14:26;10.63;;;5.38;;
11524;SDS011;5819;49.648;8.330;2023-05-10T05:16:55;7.05;;;5.70;;
11524;SDS011;5819;49.648;8.330;2023-05-10T05:19:24;5.63;;;4.90;;
11524;SDS011;5819;49.648;8.330;2023-05-10T05:21:52;5.40;;;4.90;;
11524;SDS011;5819;49.648;8.330;2023-05-10T05:24:21;7.65;;;6.13;;
11524;SDS011;5819;49.648;8.330;2023-05-10T05:26:49;7.80;;;5.38;;
11524;SDS011;5819;49.648;8.330;2023-05-10T05:29:17;6.65;;;5.53;;
11524;SDS011;5819;49.648;8.330;2023-05-10T05:31:45;6.90;;;5.18;;
11524;SDS011;5819;49.648;8.330;2023-05-10T05:34:12;8.73;;;5.65;;
11524;SDS011;5819;49.648;8.330;2023-05-10T05:36:41;6.30;;;5.57;;
11524;SDS011;5819;49.648;8.330;2023-05-10T05:39:09;14.23;;;7.82;;
11524;SDS011;5819;49.648;8.330;2023-05-10T05:41:37;7.43;;;6.72;;
11524;SDS011;5819;49.648;8.330;2023-05-10T05:44:05;8.50;;;6.40;;
11524;SDS011;5819;49.648;8.330;2023-05-10T05:46:33;10.70;;;7.18;;
11524;SDS011;5819;49.648;8.330;2023-05-10T05:49:02;10.40;;;7.57;;
11524;SDS011;5819;49.648;8.330;2023-05-10T05:51:30;8.68;;;7.88;;
11524;SDS011;5819;49.648;8.330;2023-05-10T05:53:59;10.00;;;7.85;;
11524;SDS011;5819;49.648;8.330;2023-05-10T05:56:28;9.10;;;8.20;;
11524;SDS011;5819;49.648;8.330;2023-05-10T05:58:56;10.48;;;7.40;;
11524;SDS011;5819;49.648;8.330;2023-05-10T06:01:24;10.70;;;8.02;;
11524;SDS011;5819;49.648;8.330;2023-05-10T06:03:52;8.48;;;7.55;;
11524;SDS011;5819;49.648;8.330;2023-05-10T06:06:20;8.90;;;7.85;;
11524;SDS011;5819;49.648;8.330;2023-05-10T06:08:48;7.63;;;6.93;;
11524;SDS011;5819;49.648;8.330;2023-05-10T06:11:17;8.73;;;6.90;;
11524;SDS011;5819;49.648;8.330;2023-05-10T06:13:45;7.10;;;6.50;;
11524;SDS011;5819;49.648;8.330;2023-05-10T06:16:13;9.25;;;6.35;;
11524;SDS011;5819;49.648;8.330;2023-05-10T06:18:41;6.30;;;5.72;;
11524;SDS011;5819;49.648;8.330;2023-05-10T06:21:09;7.72;;;6.03;;
11524;SDS011;5819;49.648;8.330;2023-05-10T06:23:36;8.90;;;5.70;;
11524;SDS011;5819;49.648;8.330;2023-05-10T06:26:06;7.20;;;5.55;;
11524;SDS011;5819;49.648;8.330;2023-05-10T06:28:39;6.40;;;5.80;;
11524;SDS011;5819;49.648;8.330;2023-05-10T06:31:09;6.53;;;6.03;;
11524;SDS011;5819;49.648;8.330;2023-05-10T06:33:41;7.60;;;5.45;;
11524;SDS011;5819;49.648;8.330;2023-05-10T06:36:09;6.65;;;5.82;;
11524;SDS011;5819;49.648;8.330;2023-05-10T06:38:38;5.82;;;5.32;;
11524;SDS011;5819;49.648;8.330;2023-05-10T06:41:05;6.72;;;4.22;;
11524;SDS011;5819;49.648;8.330;2023-05-10T06:43:33;4.75;;;4.32;;
11524;SDS011;5819;49.648;8.330;2023-05-10T06:46:02;5.70;;;4.55;;
11524;SDS011;5819;49.648;8.330;2023-05-10T06:48:30;4.57;;;3.70;;
11524;SDS011;5819;49.648;8.330;2023-05-10T06:50:58;4.47;;;3.10;;
11524;SDS011;5819;49.648;8.330;2023-05-10T06:53:27;4.80;;;3.60;;
11524;SDS011;5819;49.648;8.330;2023-05-10T06:55:54;6.97;;;3.85;;
11524;SDS011;5819;49.648;8.330;2023-05-10T06:58:22;4.57;;;3.72;;
11524;SDS011;5819;49.648;8.330;2023-05-10T07:00:50;5.53;;;3.95;;
11524;SDS011;5819;49.648;8.330;2023-05-10T07:03:20;6.55;;;3.72;;
11524;SDS011;5819;49.648;8.330;2023-05-10T07:05:48;3.53;;;3.05;;
11524;SDS011;5819;49.648;8.330;2023-05-10T07:08:16;4.00;;;2.92;;
11524;SDS011;5819;49.648;8.330;2023-05-10T07:10:44;4.88;;;3.35;;
11524;SDS011;5819;49.648;8.330;2023-05-10T07:13:13;3.72;;;2.88;;
11524;SDS011;5819;49.648;8.330;2023-05-10T07:15:41;6.45;;;3.10;;
11524;SDS011;5819;49.648;8.330;2023-05-10T07:18:09;15.30;;;3.10;;
11524;SDS011;5819;49.648;8.330;2023-05-10T07:20:38;3.67;;;2.72;;
11524;SDS011;5819;49.648;8.330;2023-05-10T07:23:07;5.78;;;2.15;;
11524;SDS011;5819;49.648;8.330;2023-05-10T07:25:35;2.85;;;2.50;;
11524;SDS011;5819;49.648;8.330;2023-05-10T07:28:04;8.25;;;2.22;;
11524;SDS011;5819;49.648;8.330;2023-05-10T07:30:31;3.42;;;2.30;;
11524;SDS011;5819;49.648;8.330;2023-05-10T07:33:00;6.55;;;2.67;;
11524;SDS011;5819;49.648;8.330;2023-05-10T07:35:29;2.53;;;2.33;;
11524;SDS011;5819;49.648;8.330;2023-05-10T07:37:58;2.10;;;1.70;;
11524;SDS011;5819;49.648;8.330;2023-05-10T07:40:26;4.35;;;1.65;;
11524;SDS011;5819;49.648;8.330;2023-05-10T07:42:54;2.55;;;2.35;;
11524;SDS011;5819;49.648;8.330;2023-05-10T07:45:22;4.65;;;3.45;;
11524;SDS011;5819;49.648;8.330;2023-05-10T07:47:50;4.45;;;2.05;;
11524;SDS011;5819;49.648;8.330;2023-05-10T07:50:18;4.05;;;2.20;;
11524;SDS011;5819;49.648;8.330;2023-05-10T07:52:47;4.68;;;2.35;;
11524;SDS011;5819;49.648;8.330;2023-05-10T07:55:17;2.88;;;1.90;;
11524;SDS011;5819;49.648;8.330;2023-05-10T07:57:45;3.10;;;1.52;;
11524;SDS011;5819;49.648;8.330;2023-05-10T08:00:16;3.35;;;1.45;;
11524;SDS011;5819;49.648;8.330;2023-05-10T08:02:45;4.10;;;1.40;;
11524;SDS011;5819;49.648;8.330;2023-05-10T08:05:14;5.70;;;1.35;;
11524;SDS011;5819;49.648;8.330;2023-05-10T08:07:42;3.80;;;1.50;;
11524;SDS011;5819;49.648;8.330;2023-05-10T08:10:10;2.95;;;1.20;;
11524;SDS011;5819;49.648;8.330;2023-05-10T08:12:39;1.90;;;0.82;;
11524;SDS011;5819;49.648;8.330;2023-05-10T08:15:08;1.73;;;1.58;;
11524;SDS011;5819;49.648;8.330;2023-05-10T08:17:36;5.88;;;1.40;;
11524;SDS011;5819;49.648;8.330;2023-05-10T08:20:07;2.55;;;1.10;;
11524;SDS011;5819;49.648;8.330;2023-05-10T08:22:35;2.60;;;1.30;;
11524;SDS011;5819;49.648;8.330;2023-05-10T08:25:04;1.48;;;1.17;;
11524;SDS011;5819;49.648;8.330;2023-05-10T08:27:32;1.75;;;1.10;;
11524;SDS011;5819;49.648;8.330;2023-05-10T08:30:01;2.20;;;1.27;;
11524;SDS011;5819;49.648;8.330;2023-05-10T08:32:29;4.38;;;1.00;;
11524;SDS011;5819;49.648;8.330;2023-05-10T08:34:57;2.97;;;1.02;;
11524;SDS011;5819;49.648;8.330;2023-05-10T08:37:25;2.90;;;1.10;;
11524;SDS011;5819;49.648;8.330;2023-05-10T08:39:52;5.28;;;1.13;;
11524;SDS011;5819;49.648;8.330;2023-05-10T08:42:21;3.83;;;0.98;;
11524;SDS011;5819;49.648;8.330;2023-05-10T08:44:53;2.58;;;1.40;;
11524;SDS011;5819;49.648;8.330;2023-05-10T08:47:25;3.72;;;1.15;;
11524;SDS011;5819;49.648;8.330;2023-05-10T08:49:53;1.73;;;0.77;;
11524;SDS011;5819;49.648;8.330;2023-05-10T08:52:22;2.45;;;0.90;;
11524;SDS011;5819;49.648;8.330;2023-05-10T08:54:54;0.98;;;0.80;;
11524;SDS011;5819;49.648;8.330;2023-05-10T08:57:22;2.50;;;1.13;;
11524;SDS011;5819;49.648;8.330;2023-05-10T08:59:49;0.95;;;0.60;;
11524;SDS011;5819;49.648;8.330;2023-05-10T09:02:18;1.20;;;0.77;;
11524;SDS011;5819;49.648;8.330;2023-05-10T09:04:49;2.30;;;0.80;;
11524;SDS011;5819;49.648;8.330;2023-05-10T09:07:16;1.17;;;0.80;;
11524;SDS011;5819;49.648;8.330;2023-05-10T09:09:45;0.95;;;0.75;;
11524;SDS011;5819;49.648;8.330;2023-05-10T09:12:13;3.22;;;0.90;;
11524;SDS011;5819;49.648;8.330;2023-05-10T09:14:42;1.52;;;1.20;;
11524;SDS011;5819;49.648;8.330;2023-05-10T09:17:12;1.38;;;1.00;;
11524;SDS011;5819;49.648;8.330;2023-05-10T09:19:40;1.10;;;0.85;;
11524;SDS011;5819;49.648;8.330;2023-05-10T09:22:09;2.55;;;0.90;;
11524;SDS011;5819;49.648;8.330;2023-05-10T09:24:37;3.78;;;1.00;;
11524;SDS011;5819;49.648;8.330;2023-05-10T09:27:08;1.20;;;0.90;;
11524;SDS011;5819;49.648;8.330;2023-05-10T09:29:39;3.05;;;1.20;;
11524;SDS011;5819;49.648;8.330;2023-05-10T09:32:09;2.55;;;1.25;;
11524;SDS011;5819;49.648;8.330;2023-05-10T09:34:39;1.70;;;1.10;;
11524;SDS011;5819;49.648;8.330;2023-05-10T09:37:09;3.08;;;1.65;;
11524;SDS011;5819;49.648;8.330;2023-05-10T09:39:37;4.28;;;1.27;;
11524;SDS011;5819;49.648;8.330;2023-05-10T09:42:06;2.30;;;1.10;;
11524;SDS011;5819;49.648;8.330;2023-05-10T09:44:35;2.53;;;1.42;;
11524;SDS011;5819;49.648;8.330;2023-05-10T09:47:04;4.50;;;1.50;;
11524;SDS011;5819;49.648;8.330;2023-05-10T09:49:32;3.88;;;1.45;;
11524;SDS011;5819;49.648;8.330;2023-05-10T09:52:01;2.92;;;1.60;;
11524;SDS011;5819;49.648;8.330;2023-05-10T09:54:31;5.60;;;1.40;;
11524;SDS011;5819;49.648;8.330;2023-05-10T09:57:00;1.55;;;1.30;;
11524;SDS011;5819;49.648;8.330;2023-05-10T09:59:28;6.80;;;1.52;;
11524;SDS011;5819;49.648;8.330;2023-05-10T10:01:57;2.25;;;1.50;;
11524;SDS011;5819;49.648;8.330;2023-05-10T10:04:27;2.88;;;1.58;;
11524;SDS011;5819;49.648;8.330;2023-05-10T10:06:59;2.58;;;1.15;;
11524;SDS011;5819;49.648;8.330;2023-05-10T10:09:29;4.32;;;1.70;;
11524;SDS011;5819;49.648;8.330;2023-05-10T10:11:58;2.13;;;1.88;;
11524;SDS011;5819;49.648;8.330;2023-05-10T10:14:26;1.50;;;1.15;;
11524;SDS011;5819;49.648;8.330;2023-05-10T10:16:54;6.97;;;1.63;;
11524;SDS011;5819;49.648;8.330;2023-05-10T10:19:34;1.30;;;0.95;;
11524;SDS011;5819;49.648;8.330;2023-05-10T10:22:03;1.75;;;0.90;;
11524;SDS011;5819;49.648;8.330;2023-05-10T10:24:32;1.08;;;0.88;;
11524;SDS011;5819;49.648;8.330;2023-05-10T10:27:03;3.10;;;0.70;;
11524;SDS011;5819;49.648;8.330;2023-05-10T10:29:36;2.55;;;0.70;;
11524;SDS011;5819;49.648;8.330;2023-05-10T10:32:17;4.03;;;1.63;;
11524;SDS011;5819;49.648;8.330;2023-05-10T10:34:50;2.50;;;0.50;;
11524;SDS011;5819;49.648;8.330;2023-05-10T10:37:18;2.30;;;0.60;;
11524;SDS011;5819;49.648;8.330;2023-05-10T10:39:47;2.05;;;0.40;;
11524;SDS011;5819;49.648;8.330;2023-05-10T10:45:16;2.65;;;0.80;;
11524;SDS011;5819;49.648;8.330;2023-05-10T10:47:45;3.00;;;0.60;;
11524;SDS011;5819;49.648;8.330;2023-05-10T10:50:13;1.98;;;0.77;;
11524;SDS011;5819;49.648;8.330;2023-05-10T10:52:43;2.78;;;1.25;;
11524;SDS011;5819;49.648;8.330;2023-05-10T10:55:12;1.73;;;0.90;;
11524;SDS011;5819;49.648;8.330;2023-05-10T10:57:44;2.92;;;1.00;;
11524;SDS011;5819;49.648;8.330;2023-05-10T11:00:22;2.47;;;1.00;;
11524;SDS011;5819;49.648;8.330;2023-05-10T11:02:52;3.25;;;0.77;;
11524;SDS011;5819;49.648;8.330;2023-05-10T11:08:15;1.63;;;0.90;;
11524;SDS011;5819;49.648;8.330;2023-05-10T11:10:52;1.98;;;1.10;;
11524;SDS011;5819;49.648;8.330;2023-05-10T11:13:30;3.53;;;0.80;;
11524;SDS011;5819;49.648;8.330;2023-05-10T11:16:09;2.38;;;0.73;;
11524;SDS011;5819;49.648;8.330;2023-05-10T11:18:51;1.63;;;0.77;;
11524;SDS011;5819;49.648;8.330;2023-05-10T11:21:20;1.80;;;0.80;;
11524;SDS011;5819;49.648;8.330;2023-05-10T11:23:49;2.55;;;1.00;;
11524;SDS011;5819;49.648;8.330;2023-05-10T11:26:19;1.77;;;0.80;;
11524;SDS011;5819;49.648;8.330;2023-05-10T11:28:49;3.92;;;0.70;;
11524;SDS011;5819;49.648;8.330;2023-05-10T11:31:19;1.25;;;0.80;;
11524;SDS011;5819;49.648;8.330;2023-05-10T11:33:48;3.60;;;0.70;;
11524;SDS011;5819;49.648;8.330;2023-05-10T11:36:17;1.63;;;0.70;;
11524;SDS011;5819;49.648;8.330;2023-05-10T11:38:46;2.72;;;1.08;;
11524;SDS011;5819;49.648;8.330;2023-05-10T11:41:15;0.95;;;0.70;;
11524;SDS011;5819;49.648;8.330;2023-05-10T11:43:45;3.47;;;0.70;;
11524;SDS011;5819;49.648;8.330;2023-05-10T11:46:15;2.20;;;0.95;;
11524;SDS011;5819;49.648;8.330;2023-05-10T11:48:45;1.35;;;0.77;;
11524;SDS011;5819;49.648;8.330;2023-05-10T11:51:14;5.07;;;1.10;;
11524;SDS011;5819;49.648;8.330;2023-05-10T11:53:42;1.58;;;0.90;;
11524;SDS011;5819;49.648;8.330;2023-05-10T11:56:10;5.45;;;1.27;;
11524;SDS011;5819;49.648;8.330;2023-05-10T11:58:39;3.17;;;1.17;;
11524;SDS011;5819;49.648;8.330;2023-05-10T12:01:07;6.88;;;1.35;;
11524;SDS011;5819;49.648;8.330;2023-05-10T12:03:36;4.55;;;1.20;;
11524;SDS011;5819;49.648;8.330;2023-05-10T12:06:09;3.35;;;1.35;;
11524;SDS011;5819;49.648;8.330;2023-05-10T12:08:43;4.68;;;1.33;;
11524;SDS011;5819;49.648;8.330;2023-05-10T12:11:12;2.80;;;1.00;;
11524;SDS011;5819;49.648;8.330;2023-05-10T12:13:42;5.15;;;1.15;;
11524;SDS011;5819;49.648;8.330;2023-05-10T12:16:13;4.90;;;1.35;;
11524;SDS011;5819;49.648;8.330;2023-05-10T12:18:41;5.03;;;1.35;;
11524;SDS011;5819;49.648;8.330;2023-05-10T12:21:11;5.57;;;1.05;;
11524;SDS011;5819;49.648;8.330;2023-05-10T12:23:39;3.53;;;0.90;;
11524;SDS011;5819;49.648;8.330;2023-05-10T12:26:08;2.67;;;0.73;;
11524;SDS011;5819;49.648;8.330;2023-05-10T12:28:37;3.55;;;1.10;;
11524;SDS011;5819;49.648;8.330;2023-05-10T12:31:06;3.78;;;0.80;;
11524;SDS011;5819;49.648;8.330;2023-05-10T12:33:37;4.43;;;1.33;;
11524;SDS011;5819;49.648;8.330;2023-05-10T12:36:08;2.10;;;0.85;;
11524;SDS011;5819;49.648;8.330;2023-05-10T12:38:38;5.28;;;1.33;;
11524;SDS011;5819;49.648;8.330;2023-05-10T12:41:10;3.38;;;0.98;;
11524;SDS011;5819;49.648;8.330;2023-05-10T12:43:39;7.43;;;1.38;;
11524;SDS011;5819;49.648;8.330;2023-05-10T12:46:08;4.22;;;1.17;;
11524;SDS011;5819;49.648;8.330;2023-05-10T12:48:36;2.03;;;0.82;;
11524;SDS011;5819;49.648;8.330;2023-05-10T12:51:05;2.95;;;0.95;;
11524;SDS011;5819;49.648;8.330;2023-05-10T12:53:35;2.92;;;1.15;;
11524;SDS011;5819;49.648;8.330;2023-05-10T12:56:05;1.45;;;0.85;;
11524;SDS011;5819;49.648;8.330;2023-05-10T12:58:33;3.00;;;1.30;;
11524;SDS011;5819;49.648;8.330;2023-05-10T13:01:01;1.92;;;0.90;;
11524;SDS011;5819;49.648;8.330;2023-05-10T13:03:31;2.55;;;1.00;;
11524;SDS011;5819;49.648;8.330;2023-05-10T13:05:59;2.85;;;1.02;;
11524;SDS011;5819;49.648;8.330;2023-05-10T13:08:30;4.55;;;0.80;;
11524;SDS011;5819;49.648;8.330;2023-05-10T13:11:00;4.30;;;1.00;;
11524;SDS011;5819;49.648;8.330;2023-05-10T13:13:29;2.40;;;0.85;;
11524;SDS011;5819;49.648;8.330;2023-05-10T13:15:57;3.70;;;0.90;;
11524;SDS011;5819;49.648;8.330;2023-05-10T13:18:25;1.88;;;0.90;;
11524;SDS011;5819;49.648;8.330;2023-05-10T13:20:53;2.83;;;0.90;;
11524;SDS011;5819;49.648;8.330;2023-05-10T13:23:22;3.45;;;0.93;;
11524;SDS011;5819;49.648;8.330;2023-05-10T13:25:50;4.63;;;1.05;;
11524;SDS011;5819;49.648;8.330;2023-05-10T13:28:18;2.17;;;0.70;;
11524;SDS011;5819;49.648;8.330;2023-05-10T13:30:47;3.33;;;0.82;;
11524;SDS011;5819;49.648;8.330;2023-05-10T13:33:15;1.55;;;0.50;;
11524;SDS011;5819;49.648;8.330;2023-05-10T13:35:43;2.15;;;0.70;;
11524;SDS011;5819;49.648;8.330;2023-05-10T13:38:11;3.58;;;0.90;;
11524;SDS011;5819;49.648;8.330;2023-05-10T13:40:40;2.33;;;1.02;;
11524;SDS011;5819;49.648;8.330;2023-05-10T13:43:08;1.90;;;0.93;;
11524;SDS011;5819;49.648;8.330;2023-05-10T13:45:35;3.83;;;0.90;;
11524;SDS011;5819;49.648;8.330;2023-05-10T13:48:05;2.88;;;0.70;;
11524;SDS011;5819;49.648;8.330;2023-05-10T13:50:33;4.00;;;0.68;;
11524;SDS011;5819;49.648;8.330;2023-05-10T13:53:01;1.35;;;0.70;;
11524;SDS011;5819;49.648;8.330;2023-05-10T13:55:28;4.03;;;0.80;;
11524;SDS011;5819;49.648;8.330;2023-05-10T13:57:56;2.72;;;0.63;;
11524;SDS011;5819;49.648;8.330;2023-05-10T14:00:24;1.95;;;0.75;;
11524;SDS011;5819;49.648;8.330;2023-05-10T14:02:53;1.50;;;0.73;;
11524;SDS011;5819;49.648;8.330;2023-05-10T14:05:22;3.42;;;0.70;;
11524;SDS011;5819;49.648;8.330;2023-05-10T14:07:51;5.45;;;0.75;;
11524;SDS011;5819;49.648;8.330;2023-05-10T14:10:20;2.58;;;0.70;;
11524;SDS011;5819;49.648;8.330;2023-05-10T14:12:47;1.67;;;0.68;;
11524;SDS011;5819;49.648;8.330;2023-05-10T14:15:15;4.70;;;0.70;;
11524;SDS011;5819;49.648;8.330;2023-05-10T14:17:44;3.95;;;0.68;;
11524;SDS011;5819;49.648;8.330;2023-05-10T14:20:11;2.58;;;0.60;;
11524;SDS011;5819;49.648;8.330;2023-05-10T14:22:41;2.45;;;0.73;;
11524;SDS011;5819;49.648;8.330;2023-05-10T14:25:09;3.65;;;0.80;;
11524;SDS011;5819;49.648;8.330;2023-05-10T14:27:37;3.17;;;0.70;;
11524;SDS011;5819;49.648;8.330;2023-05-10T14:30:05;3.15;;;0.93;;
11524;SDS011;5819;49.648;8.330;2023-05-10T14:32:34;3.03;;;1.02;;
11524;SDS011;5819;49.648;8.330;2023-05-10T14:35:03;2.58;;;0.90;;
11524;SDS011;5819;49.648;8.330;2023-05-10T14:37:32;2.85;;;0.68;;
11524;SDS011;5819;49.648;8.330;2023-05-10T14:40:02;1.10;;;0.77;;
11524;SDS011;5819;49.648;8.330;2023-05-10T14:42:31;3.40;;;0.70;;
11524;SDS011;5819;49.648;8.330;2023-05-10T14:45:00;2.35;;;0.60;;
11524;SDS011;5819;49.648;8.330;2023-05-10T14:47:28;1.70;;;0.63;;
11524;SDS011;5819;49.648;8.330;2023-05-10T14:49:56;1.23;;;0.80;;
11524;SDS011;5819;49.648;8.330;2023-05-10T14:52:24;1.90;;;0.50;;
11524;SDS011;5819;49.648;8.330;2023-05-10T14:54:53;1.58;;;0.60;;
11524;SDS011;5819;49.648;8.330;2023-05-10T14:57:22;2.65;;;0.80;;
11524;SDS011;5819;49.648;8.330;2023-05-10T14:59:50;5.28;;;3.40;;
11524;SDS011;5819;49.648;8.330;2023-05-10T15:02:18;2.78;;;1.35;;
11524;SDS011;5819;49.648;8.330;2023-05-10T15:04:47;4.57;;;1.02;;
11524;SDS011;5819;49.648;8.330;2023-05-10T15:07:15;4.30;;;1.55;;
11524;SDS011;5819;49.648;8.330;2023-05-10T15:09:44;2.72;;;0.70;;
11524;SDS011;5819;49.648;8.330;2023-05-10T15:12:12;2.70;;;0.60;;
11524;SDS011;5819;49.648;8.330;2023-05-10T15:14:41;5.95;;;1.13;;
11524;SDS011;5819;49.648;8.330;2023-05-10T15:17:09;3.00;;;0.82;;
11524;SDS011;5819;49.648;8.330;2023-05-10T15:19:38;3.05;;;0.85;;
11524;SDS011;5819;49.648;8.330;2023-05-10T15:22:06;2.65;;;0.80;;